CEST,Max TemperatureF,Mean TemperatureF,Min TemperatureF,Max Dew PointF,MeanDew PointF,Min DewpointF,Max Humidity, Mean Humidity, Min Humidity, Max Sea Level PressureIn, Mean Sea Level PressureIn, Min Sea Level PressureIn, Max VisibilityMiles, Mean VisibilityMiles, Min VisibilityMiles, Max Wind SpeedMPH, Mean Wind SpeedMPH, Max Gust SpeedMPH,PrecipitationIn, CloudCover, Events, WindDirDegrees
2013-5-1,65,52,39,43,40,36,87,60,31,30.27,30.18,30.09,17,7,6,15,11,23,0.00,5,Rain,46
2013-5-2,65,56,47,50,46,41,93,69,44,30.14,30.09,30.06,16,7,4,14,9,,0.00,7,Rain,33
2013-5-3,67,56,44,48,46,43,100,72,33,30.09,30.05,30.01,17,5,3,9,7,,0.00,4,,29
2013-5-4,66,53,40,45,42,39,95,71,31,30.16,30.05,30.01,19,6,3,15,6,,0.00,4,,242
2013-5-5,69,55,41,46,42,36,100,63,23,30.22,30.18,30.15,16,7,6,9,6,,0.00,2,,214
2013-5-6,76,58,41,50,45,41,100,69,20,30.19,30.11,30.04,17,6,3,15,3,,0.00,5,,337
2013-5-7,75,60,46,57,51,45,100,77,36,30.04,29.97,29.89,13,6,2,18,6,30,0.00,7,Rain,36
2013-5-8,72,64,55,61,56,50,100,82,41,29.89,29.82,29.77,19,5,1,18,7,31,0.12,6,Rain,191
2013-5-9,63,56,49,55,48,39,100,77,31,29.95,29.89,29.83,19,6,3,18,9,24,0.00,6,Rain,226
2013-5-10,61,54,47,46,44,41,82,69,50,30.02,29.91,29.83,14,6,6,22,12,,0.00,7,Rain,212
2013-5-11,58,52,45,50,46,41,94,81,58,30.01,29.92,29.86,19,6,3,20,10,28,0.16,6,Rain,213
2013-5-12,56,50,43,48,44,41,100,82,64,30.02,29.94,29.83,15,6,3,20,11,29,0.08,6,Rain,248
2013-5-13,61,53,45,54,47,37,100,85,48,30.01,29.90,29.86,19,6,2,21,13,32,0.04,7,Rain,226
2013-5-14,55,50,44,48,44,39,94,78,54,29.84,29.78,29.59,19,7,4,17,12,24,0.03,7,Rain,206
2013-5-15,64,56,49,50,45,37,94,69,29,29.62,29.51,29.44,19,6,6,17,10,29,0.00,7,Rain,198
2013-5-16,52,49,46,52,48,43,100,93,68,29.62,29.50,29.44,17,5,1,12,6,,0.51,8,Rain,337
2013-5-17,50,48,46,50,48,46,100,97,93,29.71,29.60,29.47,12,4,0,10,6,,0.47,7,Fog-Rain,289
2013-5-18,56,50,44,48,47,43,100,91,59,29.83,29.76,29.71,19,5,2,9,6,,0.00,7,Rain,237
2013-5-19,66,54,43,52,47,43,100,82,49,29.83,29.79,29.77,11,5,1,13,8,,0.00,3,,16
2013-5-20,55,52,49,52,50,48,100,90,76,29.82,29.78,29.74,12,5,1,9,6,,0.00,8,Rain,222
2013-5-21,55,52,48,52,50,48,100,95,87,29.88,29.82,29.77,6,4,2,14,4,,0.16,7,Rain,241
2013-5-22,55,50,45,48,44,41,100,85,51,29.99,29.92,29.86,19,6,2,18,11,25,0.01,7,Rain,310
2013-5-23,48,42,37,46,40,36,100,90,70,29.92,29.80,29.77,18,6,0,17,6,23,0.20,7,Fog-Rain-Thunderstorm,321
2013-5-24,55,44,33,43,37,34,100,79,39,29.95,29.84,29.80,12,6,3,16,7,20,0.01,5,Rain,197
2013-5-25,59,48,37,45,41,37,100,81,46,30.01,29.99,29.95,19,6,3,16,7,,0.12,5,Rain,326
2013-5-26,54,50,45,46,44,39,100,85,50,29.98,29.92,29.89,19,6,3,16,9,24,0.00,7,Rain,291
2013-5-27,69,57,45,46,44,39,93,65,28,29.89,29.82,29.77,18,7,6,9,7,,0.00,5,,278
2013-5-28,72,58,45,54,46,41,94,68,23,29.77,29.63,29.50,19,6,2,17,6,26,0.04,5,Rain,101
2013-5-29,53,50,48,55,50,48,100,96,83,29.64,29.56,29.53,16,4,1,13,8,,0.24,7,Rain,257
2013-5-30,59,54,48,50,49,46,100,90,59,29.86,29.70,29.62,9,4,1,7,5,,0.00,8,Rain,147
2013-5-31,72,60,48,57,52,48,100,82,42,29.96,29.85,29.80,19,4,0,22,9,33,0.00,6,Fog-Rain,327